createdAt,value
2023-05-08T00:00:11.016Z,493.00
2023-05-08T00:01:10.988Z,492.00
2023-05-08T00:02:11.044Z,492.00
2023-05-08T00:03:11.178Z,492.00
2023-05-08T00:04:11.206Z,492.00
2023-05-08T00:05:11.177Z,494.00
2023-05-08T00:06:11.202Z,495.00
2023-05-08T00:07:11.304Z,495.00
2023-05-08T00:08:11.329Z,494.00
2023-05-08T00:09:11.388Z,493.00
2023-05-08T00:10:11.544Z,494.00
2023-05-08T00:11:11.492Z,493.00
2023-05-08T00:12:11.607Z,494.00
2023-05-08T00:13:11.633Z,492.00
2023-05-08T00:14:11.698Z,491.00
2023-05-08T00:15:11.715Z,492.00
2023-05-08T00:16:11.978Z,492.00
2023-05-08T00:17:11.810Z,492.00
2023-05-08T00:18:11.857Z,494.00
2023-05-08T00:19:11.890Z,494.00
2023-05-08T00:20:12.301Z,493.00
2023-05-08T00:21:12.003Z,495.00
2023-05-08T00:22:12.049Z,494.00
2023-05-08T00:23:12.083Z,494.00
2023-05-08T00:24:12.193Z,493.00
2023-05-08T00:25:12.210Z,493.00
2023-05-08T00:26:12.284Z,491.00
2023-05-08T00:27:12.317Z,490.00
2023-05-08T00:28:12.356Z,489.00
2023-05-08T00:29:12.416Z,489.00
2023-05-08T00:30:12.565Z,488.00
2023-05-08T00:31:12.528Z,487.00
2023-05-08T00:32:12.653Z,490.00
2023-05-08T00:33:12.672Z,492.00
2023-05-08T00:34:12.691Z,493.00
2023-05-08T00:35:12.755Z,493.00
2023-05-08T00:36:12.772Z,493.00
2023-05-08T00:37:12.817Z,496.00
2023-05-08T00:38:12.975Z,497.00
2023-05-08T00:39:12.917Z,497.00
2023-05-08T00:40:13.143Z,497.00
2023-05-08T00:41:13.023Z,495.00
2023-05-08T00:42:13.070Z,496.00
2023-05-08T00:43:13.120Z,498.00
2023-05-08T00:44:13.160Z,498.00
2023-05-08T00:45:13.192Z,498.00
2023-05-08T00:46:13.367Z,495.00
2023-05-08T00:47:13.310Z,496.00
2023-05-08T00:48:13.352Z,493.00
2023-05-08T00:49:13.389Z,493.00
2023-05-08T00:50:13.778Z,492.00
2023-05-08T00:51:13.450Z,490.00
2023-05-08T00:52:13.517Z,491.00
2023-05-08T00:53:13.564Z,491.00
2023-05-08T00:54:13.674Z,493.00
2023-05-08T00:55:13.671Z,495.00
2023-05-08T00:56:13.724Z,495.00
2023-05-08T00:57:13.713Z,495.00
2023-05-08T00:58:13.778Z,496.00
2023-05-08T00:59:13.808Z,497.00
2023-05-08T01:00:14.029Z,500.00
2023-05-08T01:01:14.538Z,500.00
2023-05-08T01:02:14.051Z,502.00
2023-05-08T01:03:14.086Z,502.00
2023-05-08T01:04:14.033Z,502.00
2023-05-08T01:05:14.118Z,500.00
2023-05-08T01:06:14.151Z,498.00
2023-05-08T01:07:14.166Z,499.00
2023-05-08T01:08:14.228Z,498.00
2023-05-08T01:09:14.277Z,498.00
2023-05-08T01:10:14.663Z,497.00
2023-05-08T01:11:14.417Z,497.00
2023-05-08T01:12:14.424Z,496.00
2023-05-08T01:13:14.601Z,493.00
2023-05-08T01:14:14.519Z,492.00
2023-05-08T01:15:14.566Z,491.00
2023-05-08T01:16:14.649Z,493.00
2023-05-08T01:17:14.609Z,492.00
2023-05-08T01:18:15.588Z,491.00
2023-05-08T01:19:14.722Z,494.00
2023-05-08T01:20:14.933Z,494.00
2023-05-08T01:21:14.778Z,493.00
2023-05-08T01:22:14.800Z,496.00
2023-05-08T01:23:14.844Z,496.00
2023-05-08T01:24:15.554Z,497.00
2023-05-08T01:25:14.952Z,498.00
2023-05-08T01:26:14.994Z,500.00
2023-05-08T01:27:15.516Z,499.00
2023-05-08T01:28:15.077Z,496.00
2023-05-08T01:29:15.117Z,493.00
2023-05-08T01:30:15.153Z,492.00
2023-05-08T01:31:15.182Z,492.00
2023-05-08T01:32:15.203Z,492.00
2023-05-08T01:33:15.377Z,491.00
2023-05-08T01:34:16.047Z,491.00
2023-05-08T01:35:15.314Z,491.00
2023-05-08T01:36:15.374Z,493.00
2023-05-08T01:37:15.407Z,491.00
2023-05-08T01:38:15.485Z,491.00
2023-05-08T01:39:16.005Z,493.00
2023-05-08T01:40:16.290Z,495.00
2023-05-08T01:41:15.674Z,497.00
2023-05-08T01:42:15.654Z,496.00
2023-05-08T01:43:15.668Z,495.00
2023-05-08T01:44:15.742Z,495.00
2023-05-08T01:45:15.745Z,494.00
2023-05-08T01:46:15.837Z,494.00
2023-05-08T01:47:15.836Z,496.00
2023-05-08T01:48:15.871Z,495.00
2023-05-08T01:49:15.905Z,492.00
2023-05-08T01:50:16.132Z,492.00
2023-05-08T01:51:15.982Z,495.00
2023-05-08T01:52:16.045Z,495.00
2023-05-08T01:53:16.067Z,494.00
2023-05-08T01:54:16.150Z,494.00
2023-05-08T01:55:16.187Z,494.00
2023-05-08T01:56:16.179Z,496.00
2023-05-08T01:57:16.234Z,496.00
2023-05-08T01:58:16.268Z,495.00
2023-05-08T01:59:16.321Z,494.00
2023-05-08T02:00:16.388Z,494.00
2023-05-08T02:01:16.510Z,494.00
2023-05-08T02:02:16.456Z,495.00
2023-05-08T02:03:16.530Z,496.00
2023-05-08T02:04:16.604Z,496.00
2023-05-08T02:05:16.542Z,496.00
2023-05-08T02:06:16.638Z,494.00
2023-05-08T02:07:16.612Z,496.00
2023-05-08T02:08:16.664Z,496.00
2023-05-08T02:09:16.716Z,497.00
2023-05-08T02:10:16.784Z,498.00
2023-05-08T02:11:16.840Z,499.00
2023-05-08T02:12:16.835Z,499.00
2023-05-08T02:13:17.629Z,499.00
2023-05-08T02:14:16.920Z,502.00
2023-05-08T02:15:16.944Z,503.00
2023-05-08T02:16:17.043Z,502.00
2023-05-08T02:17:17.023Z,499.00
2023-05-08T02:18:17.065Z,497.00
2023-05-08T02:19:18.054Z,493.00
2023-05-08T02:20:17.183Z,493.00
2023-05-08T02:21:17.180Z,492.00
2023-05-08T02:22:17.232Z,493.00
2023-05-08T02:23:17.294Z,492.00
2023-05-08T02:24:17.323Z,491.00
2023-05-08T02:25:17.377Z,491.00
2023-05-08T02:26:17.428Z,491.00
2023-05-08T02:27:17.452Z,492.00
2023-05-08T02:28:17.460Z,491.00
2023-05-08T02:29:17.509Z,491.00
2023-05-08T02:30:17.567Z,491.00
2023-05-08T02:31:17.611Z,493.00
2023-05-08T02:32:17.745Z,495.00
2023-05-08T02:33:17.733Z,496.00
2023-05-08T02:34:17.713Z,494.00
2023-05-08T02:35:17.826Z,492.00
2023-05-08T02:36:17.802Z,496.00
2023-05-08T02:37:17.848Z,495.00
2023-05-08T02:38:17.925Z,495.00
2023-05-08T02:39:17.939Z,495.00
2023-05-08T02:40:17.981Z,493.00
2023-05-08T02:41:18.054Z,493.00
2023-05-08T02:42:18.101Z,491.00
2023-05-08T02:43:18.162Z,492.00
2023-05-08T02:44:18.217Z,492.00
2023-05-08T02:45:18.286Z,492.00
2023-05-08T02:46:18.317Z,495.00
2023-05-08T02:47:18.348Z,496.00
2023-05-08T02:48:18.375Z,497.00
2023-05-08T02:49:18.453Z,497.00
2023-05-08T02:50:18.520Z,499.00
2023-05-08T02:51:18.515Z,498.00
2023-05-08T02:52:18.634Z,495.00
2023-05-08T02:53:18.594Z,494.00
2023-05-08T02:54:18.641Z,495.00
2023-05-08T02:55:18.770Z,497.00
2023-05-08T02:56:18.771Z,497.00
2023-05-08T02:57:18.797Z,498.00
2023-05-08T02:58:18.861Z,500.00
2023-05-08T02:59:18.881Z,502.00
2023-05-08T03:00:18.914Z,502.00
2023-05-08T03:01:18.979Z,501.00
2023-05-08T03:02:19.010Z,498.00
2023-05-08T03:03:19.252Z,499.00
2023-05-08T03:04:19.110Z,500.00
2023-05-08T03:05:19.187Z,498.00
2023-05-08T03:06:19.213Z,499.00
2023-05-08T03:07:19.272Z,498.00
2023-05-08T03:08:19.346Z,499.00
2023-05-08T03:09:19.339Z,496.00
2023-05-08T03:10:19.402Z,494.00
2023-05-08T03:11:19.475Z,495.00
2023-05-08T03:12:19.461Z,497.00
2023-05-08T03:13:19.537Z,499.00
2023-05-08T03:14:19.584Z,500.00
2023-05-08T03:15:19.605Z,502.00
2023-05-08T03:16:19.727Z,502.00
2023-05-08T03:17:19.782Z,507.00
2023-05-08T03:18:19.781Z,508.00
2023-05-08T03:19:21.365Z,508.00
2023-05-08T03:20:19.818Z,507.00
2023-05-08T03:21:19.789Z,506.00
2023-05-08T03:22:19.805Z,506.00
2023-05-08T03:23:19.809Z,505.00
2023-05-08T03:24:19.788Z,505.00
2023-05-08T03:25:19.783Z,504.00
2023-05-08T03:26:19.740Z,505.00
2023-05-08T03:27:19.749Z,505.00
2023-05-08T03:28:19.791Z,503.00
2023-05-08T03:29:19.730Z,502.00
2023-05-08T03:30:19.712Z,500.00
2023-05-08T03:31:19.763Z,500.00
2023-05-08T03:32:19.709Z,500.00
2023-05-08T03:33:19.713Z,500.00
2023-05-08T03:34:19.699Z,502.00
2023-05-08T03:35:19.758Z,500.00
2023-05-08T03:36:19.753Z,500.00
2023-05-08T03:37:19.682Z,500.00
2023-05-08T03:38:19.664Z,504.00
2023-05-08T03:39:20.568Z,505.00
2023-05-08T03:40:19.715Z,506.00
2023-05-08T03:41:19.673Z,506.00
2023-05-08T03:42:19.661Z,508.00
2023-05-08T03:43:19.676Z,509.00
2023-05-08T03:44:19.621Z,507.00
2023-05-08T03:45:19.646Z,508.00
2023-05-08T03:46:19.698Z,507.00
2023-05-08T03:47:19.607Z,509.00
2023-05-08T03:48:19.663Z,509.00
2023-05-08T03:49:19.687Z,507.00
2023-05-08T03:50:19.693Z,508.00
2023-05-08T03:51:19.571Z,506.00
2023-05-08T03:52:19.559Z,509.00
2023-05-08T03:53:19.597Z,510.00
2023-05-08T03:54:19.564Z,509.00
2023-05-08T03:55:19.571Z,510.00
2023-05-08T03:56:19.666Z,507.00
2023-05-08T03:57:19.553Z,508.00
2023-05-08T03:58:19.550Z,507.00
2023-05-08T03:59:19.564Z,506.00
2023-05-08T04:00:19.690Z,506.00
2023-05-08T04:01:19.649Z,507.00
2023-05-08T04:02:19.774Z,506.00
2023-05-08T04:03:19.764Z,507.00
2023-05-08T04:04:19.886Z,508.00
2023-05-08T04:05:19.815Z,509.00
2023-05-08T04:06:19.873Z,510.00
2023-05-08T04:07:19.903Z,511.00
2023-05-08T04:08:19.926Z,512.00
2023-05-08T04:09:20.008Z,512.00
2023-05-08T04:10:20.059Z,512.00
2023-05-08T04:11:20.109Z,510.00
2023-05-08T04:12:20.171Z,509.00
2023-05-08T04:13:20.295Z,511.00
2023-05-08T04:14:20.219Z,512.00
2023-05-08T04:15:20.272Z,511.00
2023-05-08T04:16:20.368Z,509.00
2023-05-08T04:17:20.370Z,506.00
2023-05-08T04:18:20.420Z,504.00
2023-05-08T04:19:20.857Z,503.00
2023-05-08T04:20:20.514Z,505.00
2023-05-08T04:21:20.512Z,505.00
2023-05-08T04:22:20.579Z,506.00
2023-05-08T04:23:20.642Z,505.00
2023-05-08T04:24:20.683Z,506.00
2023-05-08T04:25:21.114Z,506.00
2023-05-08T04:26:20.842Z,506.00
2023-05-08T04:27:20.842Z,506.00
2023-05-08T04:28:20.940Z,505.00
2023-05-08T04:29:20.935Z,504.00
2023-05-08T04:30:21.011Z,502.00
2023-05-08T04:31:21.060Z,501.00
2023-05-08T04:32:21.099Z,499.00
2023-05-08T04:33:21.200Z,501.00
2023-05-08T04:34:21.221Z,499.00
2023-05-08T04:35:21.306Z,500.00
2023-05-08T04:36:21.316Z,499.00
2023-05-08T04:37:21.351Z,501.00
2023-05-08T04:38:22.122Z,502.00
2023-05-08T04:39:21.466Z,501.00
2023-05-08T04:40:21.505Z,502.00
2023-05-08T04:41:21.664Z,504.00
2023-05-08T04:42:21.636Z,502.00
2023-05-08T04:43:21.644Z,502.00
2023-05-08T04:44:21.703Z,500.00
2023-05-08T04:45:21.800Z,498.00
2023-05-08T04:46:21.918Z,499.00
2023-05-08T04:47:21.950Z,500.00
2023-05-08T04:48:21.913Z,500.00
2023-05-08T04:49:21.984Z,502.00
2023-05-08T04:50:22.042Z,503.00
2023-05-08T04:51:22.091Z,505.00
2023-05-08T04:52:23.107Z,506.00
2023-05-08T04:53:22.222Z,506.00
2023-05-08T04:54:22.270Z,504.00
2023-05-08T04:55:22.290Z,504.00
2023-05-08T04:56:22.348Z,506.00
2023-05-08T04:57:22.409Z,504.00
2023-05-08T04:58:22.494Z,508.00
2023-05-08T04:59:22.497Z,510.00
2023-05-08T05:00:22.550Z,511.00
2023-05-08T05:01:23.733Z,512.00
2023-05-08T05:02:22.660Z,509.00
2023-05-08T05:03:22.786Z,509.00
2023-05-08T05:04:22.785Z,507.00
2023-05-08T05:05:22.819Z,509.00
2023-05-08T05:06:22.895Z,509.00
2023-05-08T05:07:22.927Z,510.00
2023-05-08T05:08:23.024Z,511.00
2023-05-08T05:09:23.041Z,510.00
2023-05-08T05:10:23.075Z,507.00
2023-05-08T05:11:23.118Z,509.00
2023-05-08T05:12:23.184Z,509.00
2023-05-08T05:13:23.314Z,510.00
2023-05-08T05:14:23.307Z,509.00
2023-05-08T05:15:23.321Z,511.00
2023-05-08T05:16:23.472Z,511.00
2023-05-08T05:17:23.506Z,512.00
2023-05-08T05:18:23.490Z,511.00
2023-05-08T05:19:23.546Z,509.00
2023-05-08T05:20:23.605Z,507.00
2023-05-08T05:21:23.659Z,506.00
2023-05-08T05:22:23.715Z,505.00
2023-05-08T05:23:23.757Z,504.00
2023-05-08T05:24:23.795Z,503.00
2023-05-08T05:25:23.839Z,504.00
2023-05-08T05:26:23.907Z,504.00
2023-05-08T05:27:23.973Z,502.00
2023-05-08T05:28:24.012Z,504.00
2023-05-08T05:29:24.067Z,504.00
2023-05-08T05:30:24.132Z,501.00
2023-05-08T05:31:24.191Z,501.00
2023-05-08T05:32:24.253Z,500.00
2023-05-08T05:33:24.268Z,499.00
2023-05-08T05:34:24.315Z,502.00
2023-05-08T05:35:25.571Z,500.00
2023-05-08T05:36:24.434Z,505.00
2023-05-08T05:37:24.480Z,507.00
2023-05-08T05:38:24.535Z,511.00
2023-05-08T05:39:24.573Z,521.00
2023-05-08T05:40:24.636Z,554.00
2023-05-08T05:41:24.659Z,594.00
2023-05-08T05:42:24.692Z,639.00
2023-05-08T05:43:24.748Z,624.00
2023-05-08T05:44:24.728Z,621.00
2023-05-08T05:45:24.793Z,667.00
2023-05-08T05:46:24.849Z,681.00
2023-05-08T05:47:24.893Z,671.00
2023-05-08T05:48:24.904Z,683.00
2023-05-08T05:49:24.891Z,857.00
2023-05-08T05:50:25.183Z,809.00
2023-05-08T05:51:25.019Z,1120.00
2023-05-08T05:52:25.062Z,1001.00
2023-05-08T05:53:25.194Z,971.00
2023-05-08T05:54:25.218Z,784.00
2023-05-08T05:55:25.651Z,817.00
2023-05-08T05:56:25.381Z,1061.00
2023-05-08T05:57:25.300Z,911.00
2023-05-08T05:58:25.349Z,839.00
2023-05-08T05:59:25.416Z,956.00
2023-05-08T06:00:25.413Z,960.00
2023-05-08T06:01:25.428Z,944.00
2023-05-08T06:02:25.561Z,924.00
2023-05-08T06:03:25.528Z,935.00
2023-05-08T06:04:25.480Z,1008.00
2023-05-08T06:05:25.551Z,1051.00
2023-05-08T06:06:25.577Z,1082.00
2023-05-08T06:07:25.633Z,1132.00
2023-05-08T06:08:25.709Z,1165.00
2023-05-08T06:09:25.719Z,1175.00
2023-05-08T06:10:26.118Z,1211.00
2023-05-08T06:11:25.761Z,1240.00
2023-05-08T06:12:25.752Z,1299.00
2023-05-08T06:13:25.901Z,1390.00
2023-05-08T06:14:25.770Z,1361.00
2023-05-08T06:15:26.112Z,1362.00
2023-05-08T06:16:25.812Z,1361.00
2023-05-08T06:17:25.881Z,1357.00
2023-05-08T06:18:25.900Z,1426.00
2023-05-08T06:19:25.977Z,1439.00
2023-05-08T06:20:26.487Z,1560.00
2023-05-08T06:21:25.965Z,1515.00
2023-05-08T06:22:26.036Z,1499.00
2023-05-08T06:23:26.120Z,1499.00
2023-05-08T06:24:26.101Z,1504.00
2023-05-08T06:25:26.173Z,1522.00
2023-05-08T06:26:26.180Z,1536.00
2023-05-08T06:27:26.250Z,1633.00
2023-05-08T06:28:26.303Z,1608.00
2023-05-08T06:29:26.327Z,1593.00
2023-05-08T06:30:26.400Z,1606.00
2023-05-08T06:31:26.519Z,1626.00
2023-05-08T06:32:26.544Z,1749.00
2023-05-08T06:33:27.078Z,1664.00
2023-05-08T06:34:26.585Z,1707.00
2023-05-08T06:35:26.675Z,1710.00
2023-05-08T06:36:26.726Z,1699.00
2023-05-08T06:37:26.765Z,1729.00
2023-05-08T06:38:26.836Z,1730.00
2023-05-08T06:39:26.866Z,1696.00
2023-05-08T06:40:26.974Z,1695.00
2023-05-08T06:41:26.975Z,1705.00
2023-05-08T06:42:26.977Z,1712.00
2023-05-08T06:43:27.031Z,1719.00
2023-05-08T06:44:27.055Z,1726.00
2023-05-08T06:45:27.090Z,1807.00
2023-05-08T06:46:27.186Z,1820.00
2023-05-08T06:47:27.174Z,1822.00
2023-05-08T06:48:27.214Z,1800.00
2023-05-08T06:49:27.168Z,1481.00
2023-05-08T06:50:27.669Z,1274.00
2023-05-08T06:51:27.274Z,1257.00
2023-05-08T06:52:27.282Z,1275.00
2023-05-08T06:53:27.296Z,1414.00
2023-05-08T06:54:27.318Z,1267.00
2023-05-08T06:55:27.341Z,1362.00
2023-05-08T06:56:27.329Z,1454.00
2023-05-08T06:57:27.372Z,1438.00
2023-05-08T06:58:27.412Z,1582.00
2023-05-08T06:59:27.445Z,1537.00
2023-05-08T07:00:27.507Z,1535.00
2023-05-08T07:01:27.618Z,1552.00
2023-05-08T07:02:27.646Z,1592.00
2023-05-08T07:03:27.669Z,1705.00
2023-05-08T07:04:28.422Z,1674.00
2023-05-08T07:05:27.707Z,1663.00
2023-05-08T07:06:27.735Z,1653.00
2023-05-08T07:07:27.773Z,1737.00
2023-05-08T07:08:27.863Z,1800.00
2023-05-08T07:09:27.864Z,1740.00
2023-05-08T07:10:27.888Z,1736.00
2023-05-08T07:11:27.910Z,1752.00
2023-05-08T07:12:27.951Z,1760.00
2023-05-08T07:13:27.982Z,1748.00
2023-05-08T07:14:27.991Z,1809.00
2023-05-08T07:15:28.269Z,1805.00
2023-05-08T07:16:28.106Z,1801.00
2023-05-08T07:17:28.074Z,1773.00
2023-05-08T07:18:28.091Z,1811.00
2023-05-08T07:19:28.091Z,1853.00
2023-05-08T07:20:28.147Z,1853.00
2023-05-08T07:21:28.167Z,1855.00
2023-05-08T07:22:28.208Z,1860.00
2023-05-08T07:23:28.274Z,1979.00
2023-05-08T07:24:28.158Z,2262.00
2023-05-08T07:25:28.192Z,2007.00
2023-05-08T07:26:28.193Z,1987.00
2023-05-08T07:27:28.216Z,1973.00
2023-05-08T07:28:28.232Z,1965.00
2023-05-08T07:29:28.254Z,1964.00
2023-05-08T07:30:28.338Z,1964.00
2023-05-08T07:31:28.407Z,1985.00
2023-05-08T07:32:28.391Z,1989.00
2023-05-08T07:33:28.395Z,1995.00
2023-05-08T07:34:28.449Z,1997.00
2023-05-08T07:35:28.506Z,1992.00
2023-05-08T07:36:28.543Z,1963.00
2023-05-08T07:37:28.617Z,1977.00
2023-05-08T07:38:28.648Z,1995.00
2023-05-08T07:39:28.714Z,2007.00
2023-05-08T07:40:29.192Z,2033.00
2023-05-08T07:41:28.864Z,2021.00
2023-05-08T07:42:28.854Z,1840.00
2023-05-08T07:43:28.872Z,1836.00
2023-05-08T07:44:28.900Z,1806.00
2023-05-08T07:45:29.155Z,1798.00
2023-05-08T07:46:28.888Z,1817.00
2023-05-08T07:47:28.955Z,1797.00
2023-05-08T07:48:28.956Z,1566.00
2023-05-08T07:49:28.972Z,1386.00
2023-05-08T07:50:28.993Z,1270.00
2023-05-08T07:51:29.038Z,1264.00
2023-05-08T07:52:29.653Z,1206.00
2023-05-08T07:53:29.124Z,1121.00
2023-05-08T07:54:29.123Z,1104.00
2023-05-08T07:55:29.133Z,1096.00
2023-05-08T07:56:29.178Z,1125.00
2023-05-08T07:57:29.137Z,1150.00
2023-05-08T07:58:29.186Z,1222.00
2023-05-08T07:59:29.157Z,1324.00
2023-05-08T08:00:29.246Z,1404.00
2023-05-08T08:01:29.257Z,1461.00
2023-05-08T08:02:29.393Z,1479.00
2023-05-08T08:03:29.477Z,1487.00
2023-05-08T08:04:29.576Z,1462.00
2023-05-08T08:05:29.804Z,1465.00
2023-05-08T08:06:29.506Z,1463.00
2023-05-08T08:07:29.529Z,1457.00
2023-05-08T08:08:29.569Z,1466.00
2023-05-08T08:09:29.636Z,1426.00
2023-05-08T08:10:29.698Z,1455.00
2023-05-08T08:11:29.680Z,1479.00
2023-05-08T08:12:29.819Z,1484.00
2023-05-08T08:13:29.839Z,1485.00
2023-05-08T08:14:29.815Z,1488.00
2023-05-08T08:15:29.871Z,1491.00
2023-05-08T08:16:29.946Z,1474.00
2023-05-08T08:17:30.008Z,1473.00
2023-05-08T08:18:29.946Z,1485.00
2023-05-08T08:19:30.050Z,1490.00
2023-05-08T08:20:30.045Z,1493.00
2023-05-08T08:21:30.110Z,1497.00
2023-05-08T08:22:30.111Z,1501.00
2023-05-08T08:23:30.158Z,1503.00
2023-05-08T08:24:30.211Z,1498.00
2023-05-08T08:25:30.237Z,1497.00
2023-05-08T08:26:30.276Z,1501.00
2023-05-08T08:27:30.319Z,1509.00
2023-05-08T08:28:30.444Z,1513.00
2023-05-08T08:29:30.423Z,1519.00
2023-05-08T08:30:30.478Z,1518.00
2023-05-08T08:31:30.441Z,1522.00
2023-05-08T08:32:30.462Z,1524.00
2023-05-08T08:33:30.588Z,1526.00
2023-05-08T08:34:30.536Z,1529.00
2023-05-08T08:35:30.591Z,1381.00
2023-05-08T08:36:30.977Z,1423.00
2023-05-08T08:37:30.640Z,1442.00
2023-05-08T08:38:30.709Z,1325.00
2023-05-08T08:39:30.736Z,1374.00
2023-05-08T08:40:30.766Z,1241.00
2023-05-08T08:41:30.777Z,1279.00
2023-05-08T08:42:30.783Z,1326.00
2023-05-08T08:43:30.822Z,1322.00
2023-05-08T08:44:30.923Z,1360.00
2023-05-08T08:45:31.196Z,1387.00
2023-05-08T08:46:30.944Z,1859.00
2023-05-08T08:47:30.941Z,1758.00
2023-05-08T08:48:30.924Z,1537.00
2023-05-08T08:49:30.948Z,1498.00
2023-05-08T08:50:31.190Z,1559.00
2023-05-08T08:51:31.070Z,1575.00
2023-05-08T08:52:31.046Z,1614.00
2023-05-08T08:53:31.148Z,1617.00
2023-05-08T08:54:31.167Z,1566.00
2023-05-08T08:55:31.268Z,1615.00
2023-05-08T08:56:31.265Z,1500.00
2023-05-08T08:57:31.337Z,1536.00
2023-05-08T08:58:31.358Z,1424.00
2023-05-08T08:59:31.428Z,1242.00
2023-05-08T09:00:31.580Z,1224.00
2023-05-08T09:01:31.622Z,1214.00
2023-05-08T09:02:31.646Z,1140.00
2023-05-08T09:03:31.755Z,1149.00
2023-05-08T09:04:31.707Z,1084.00
2023-05-08T09:05:32.184Z,1064.00
2023-05-08T09:06:31.741Z,1065.00
2023-05-08T09:07:31.751Z,1060.00
2023-05-08T09:08:31.807Z,1014.00
2023-05-08T09:09:31.824Z,1007.00
2023-05-08T09:10:32.234Z,984.00
2023-05-08T09:11:31.846Z,983.00
2023-05-08T09:12:31.906Z,992.00
2023-05-08T09:13:32.016Z,1002.00
2023-05-08T09:14:31.964Z,1006.00
2023-05-08T09:15:32.005Z,1009.00
2023-05-08T09:16:32.158Z,964.00
2023-05-08T09:17:32.107Z,952.00
2023-05-08T09:18:32.073Z,939.00
2023-05-08T09:19:32.136Z,940.00
2023-05-08T09:20:32.170Z,936.00
2023-05-08T09:21:32.184Z,942.00
2023-05-08T09:22:32.191Z,940.00
2023-05-08T09:23:32.261Z,938.00
2023-05-08T09:24:32.302Z,968.00
2023-05-08T09:25:32.350Z,1016.00
2023-05-08T09:26:32.353Z,1034.00
2023-05-08T09:27:32.370Z,1068.00
2023-05-08T09:28:32.391Z,1090.00
2023-05-08T09:29:32.431Z,1001.00
2023-05-08T09:30:32.448Z,1045.00
2023-05-08T09:31:32.814Z,1060.00
2023-05-08T09:32:32.721Z,1089.00
2023-05-08T09:33:32.509Z,1082.00
2023-05-08T09:34:32.528Z,1041.00
2023-05-08T09:35:32.551Z,1073.00
2023-05-08T09:36:32.516Z,1025.00
2023-05-08T09:37:32.528Z,1026.00
2023-05-08T09:38:32.565Z,1020.00
2023-05-08T09:39:32.608Z,1026.00
2023-05-08T09:40:32.724Z,1045.00
2023-05-08T09:41:32.633Z,1048.00
2023-05-08T09:42:32.636Z,1141.00
2023-05-08T09:43:32.709Z,1211.00
2023-05-08T09:44:32.751Z,1440.00
2023-05-08T09:45:33.323Z,1683.00
2023-05-08T09:46:32.804Z,1453.00
2023-05-08T09:47:32.861Z,1323.00
2023-05-08T09:48:32.999Z,1318.00
2023-05-08T09:49:32.925Z,1349.00
2023-05-08T09:50:32.963Z,1357.00
2023-05-08T09:51:32.966Z,1357.00
2023-05-08T09:52:32.985Z,1367.00
2023-05-08T09:53:33.007Z,1382.00
2023-05-08T09:54:33.031Z,1404.00
2023-05-08T09:55:33.073Z,1412.00
2023-05-08T09:56:33.106Z,1090.00
2023-05-08T09:57:33.130Z,873.00
2023-05-08T09:58:33.158Z,799.00
2023-05-08T09:59:34.185Z,770.00
2023-05-08T10:00:33.253Z,823.00
2023-05-08T10:01:33.332Z,795.00
2023-05-08T10:02:33.299Z,762.00
2023-05-08T10:03:33.334Z,748.00
2023-05-08T10:04:33.424Z,736.00
2023-05-08T10:05:33.449Z,718.00
2023-05-08T10:06:33.348Z,701.00
2023-05-08T10:07:33.362Z,689.00
2023-05-08T10:08:33.401Z,663.00
2023-05-08T10:09:47.115Z,667.00
2023-05-08T10:10:34.446Z,702.00
2023-05-08T10:11:33.840Z,724.00
2023-05-08T10:12:33.422Z,864.00
2023-05-08T10:13:33.397Z,884.00
2023-05-08T10:14:33.459Z,931.00
2023-05-08T10:15:33.413Z,1017.00
2023-05-08T10:16:33.426Z,1049.00
2023-05-08T10:17:33.404Z,1085.00
2023-05-08T10:18:33.359Z,1086.00
2023-05-08T10:19:33.402Z,1112.00
2023-05-08T10:20:33.485Z,1151.00
2023-05-08T10:21:33.411Z,1175.00
2023-05-08T10:22:33.410Z,1196.00
2023-05-08T10:23:33.330Z,1251.00
2023-05-08T10:24:33.385Z,1261.00
2023-05-08T10:25:33.408Z,1278.00
2023-05-08T10:26:33.421Z,1331.00
2023-05-08T10:27:33.480Z,1350.00
2023-05-08T10:28:33.526Z,1383.00
2023-05-08T10:29:33.582Z,1407.00
2023-05-08T10:30:33.628Z,1431.00
2023-05-08T10:31:33.746Z,1516.00
2023-05-08T10:32:33.767Z,1518.00
2023-05-08T10:33:33.843Z,1565.00
2023-05-08T10:34:33.849Z,1595.00
2023-05-08T10:35:33.887Z,1579.00
2023-05-08T10:36:34.310Z,1670.00
2023-05-08T10:37:34.044Z,1675.00
2023-05-08T10:38:34.094Z,1675.00
2023-05-08T10:39:34.120Z,1904.00
2023-05-08T10:40:34.083Z,1832.00
2023-05-08T10:41:34.147Z,1762.00
2023-05-08T10:42:34.167Z,1814.00
2023-05-08T10:43:34.173Z,1861.00
2023-05-08T10:44:34.207Z,1875.00
2023-05-08T10:45:34.250Z,1904.00
2023-05-08T10:46:34.769Z,1910.00
2023-05-08T10:47:34.284Z,1933.00
2023-05-08T10:48:34.298Z,1946.00
2023-05-08T10:49:34.327Z,1977.00
2023-05-08T10:50:34.349Z,2021.00
2023-05-08T10:51:34.364Z,2046.00
2023-05-08T10:52:34.364Z,2078.00
2023-05-08T10:53:34.413Z,2100.00
2023-05-08T10:54:34.393Z,2123.00
2023-05-08T10:55:34.393Z,2141.00
2023-05-08T10:56:34.422Z,2162.00
2023-05-08T10:57:34.424Z,2192.00
2023-05-08T10:58:34.407Z,2243.00
2023-05-08T10:59:34.450Z,2282.00
2023-05-08T11:00:34.434Z,2287.00
2023-05-08T11:01:34.531Z,2303.00
2023-05-08T11:02:34.537Z,2342.00
2023-05-08T11:03:34.561Z,2396.00
2023-05-08T11:04:34.602Z,2416.00
2023-05-08T11:05:34.542Z,2446.00
2023-05-08T11:06:34.587Z,2567.00
2023-05-08T11:07:34.571Z,2519.00
2023-05-08T11:08:34.695Z,2519.00
2023-05-08T11:09:34.605Z,2536.00
2023-05-08T11:10:34.704Z,2567.00
2023-05-08T11:11:34.685Z,2630.00
2023-05-08T11:12:34.704Z,2613.00
2023-05-08T11:13:34.822Z,2609.00
2023-05-08T11:14:34.746Z,2600.00
2023-05-08T11:15:34.789Z,2552.00
2023-05-08T11:16:34.965Z,2546.00
2023-05-08T11:17:34.924Z,2545.00
2023-05-08T11:18:48.555Z,2622.00
2023-05-08T11:19:35.971Z,2616.00
2023-05-08T11:20:34.924Z,2608.00
2023-05-08T11:21:34.905Z,2607.00
2023-05-08T11:22:34.927Z,2615.00
2023-05-08T11:23:34.885Z,2622.00
2023-05-08T11:24:34.907Z,2667.00
2023-05-08T11:25:34.902Z,2694.00
2023-05-08T11:26:34.900Z,2697.00
2023-05-08T11:27:34.873Z,2726.00
2023-05-08T11:28:34.881Z,2745.00
2023-05-08T11:29:34.919Z,2779.00
2023-05-08T11:30:35.145Z,2785.00
2023-05-08T11:31:35.325Z,2775.00
2023-05-08T11:32:35.404Z,2782.00
2023-05-08T11:33:35.146Z,2826.00
2023-05-08T11:34:35.142Z,2829.00
2023-05-08T11:35:35.210Z,2827.00
2023-05-08T11:36:35.274Z,2803.00
2023-05-08T11:37:35.250Z,2800.00
2023-05-08T11:38:35.231Z,2792.00
2023-05-08T11:39:35.282Z,2779.00
2023-05-08T11:40:35.276Z,2766.00
2023-05-08T11:41:35.282Z,2712.00
2023-05-08T11:42:35.303Z,2692.00
2023-05-08T11:43:35.325Z,2668.00
2023-05-08T11:44:35.339Z,2654.00
2023-05-08T11:45:35.353Z,2631.00
2023-05-08T11:46:35.458Z,2621.00
2023-05-08T11:47:35.422Z,2595.00
2023-05-08T11:48:35.447Z,2576.00
2023-05-08T11:49:35.499Z,2564.00
2023-05-08T11:50:35.499Z,2552.00
2023-05-08T11:51:35.566Z,2538.00
2023-05-08T11:52:35.553Z,2462.00
2023-05-08T11:53:35.615Z,2444.00
2023-05-08T11:54:35.685Z,2370.00
2023-05-08T11:55:35.705Z,2271.00
2023-05-08T11:56:35.797Z,2270.00
2023-05-08T11:57:35.826Z,2260.00
2023-05-08T11:58:35.826Z,2137.00
2023-05-08T11:59:35.953Z,2177.00
2023-05-08T12:00:35.937Z,2144.00
2023-05-08T12:01:36.032Z,2114.00
2023-05-08T12:02:36.124Z,1993.00
2023-05-08T12:03:36.175Z,1922.00
2023-05-08T12:04:36.816Z,1926.00
2023-05-08T12:05:36.213Z,1932.00
2023-05-08T12:06:36.277Z,1936.00
2023-05-08T12:07:36.313Z,1913.00
2023-05-08T12:08:36.380Z,1865.00
2023-05-08T12:09:36.442Z,1860.00
2023-05-08T12:10:36.457Z,1871.00
2023-05-08T12:11:36.540Z,1870.00
2023-05-08T12:12:36.566Z,1849.00
2023-05-08T12:13:36.673Z,1831.00
2023-05-08T12:14:36.695Z,1805.00
2023-05-08T12:15:36.733Z,1741.00
2023-05-08T12:16:37.338Z,1730.00
2023-05-08T12:17:36.919Z,1715.00